sensor_id;sensor_type;location;lat;lon;timestamp;P1;P2;P0
14880;PMS7003;7533;51.278;12.588;2023-02-03T00:03:49;0.00;0.00;0.00
14880;PMS7003;7533;51.278;12.588;2023-02-03T00:08:52;0.00;0.00;0.00
14880;PMS7003;7533;51.278;12.588;2023-02-03T00:13:58;0.00;0.00;0.00
14880;PMS7003;7533;51.278;12.588;2023-02-03T00:19:02;0.50;0.00;0.00
14880;PMS7003;7533;51.278;12.588;2023-02-03T00:24:05;0.00;0.00;0.00
14880;PMS7003;7533;51.278;12.588;2023-02-03T00:29:08;0.75;0.75;0.75
14880;PMS7003;7533;51.278;12.588;2023-02-03T00:34:13;0.75;0.00;0.00
14880;PMS7003;7533;51.278;12.588;2023-02-03T00:39:16;0.00;0.00;0.00
14880;PMS7003;7533;51.278;12.588;2023-02-03T00:44:20;0.00;0.00;0.00
14880;PMS7003;7533;51.278;12.588;2023-02-03T00:49:24;0.00;0.00;0.00
14880;PMS7003;7533;51.278;12.588;2023-02-03T00:54:27;0.00;0.00;0.00
14880;PMS7003;7533;51.278;12.588;2023-02-03T00:59:32;1.00;1.00;0.00
14880;PMS7003;7533;51.278;12.588;2023-02-03T01:04:37;0.00;0.00;0.00
14880;PMS7003;7533;51.278;12.588;2023-02-03T01:09:40;1.50;0.50;0.00
14880;PMS7003;7533;51.278;12.588;2023-02-03T01:14:44;0.00;0.00;0.00
14880;PMS7003;7533;51.278;12.588;2023-02-03T01:19:49;0.00;0.00;0.00
14880;PMS7003;7533;51.278;12.588;2023-02-03T01:24:52;0.00;0.00;0.00
14880;PMS7003;7533;51.278;12.588;2023-02-03T01:29:55;1.50;0.50;0.00
14880;PMS7003;7533;51.278;12.588;2023-02-03T01:35:00;1.00;0.00;0.00
14880;PMS7003;7533;51.278;12.588;2023-02-03T01:40:03;0.00;0.00;0.00
14880;PMS7003;7533;51.278;12.588;2023-02-03T01:45:08;0.00;0.00;0.00
14880;PMS7003;7533;51.278;12.588;2023-02-03T01:50:15;1.00;0.75;0.00
14880;PMS7003;7533;51.278;12.588;2023-02-03T01:55:25;0.50;0.00;0.00
14880;PMS7003;7533;51.278;12.588;2023-02-03T02:00:33;0.00;0.00;0.00
14880;PMS7003;7533;51.278;12.588;2023-02-03T02:05:37;0.00;0.00;0.00
14880;PMS7003;7533;51.278;12.588;2023-02-03T02:10:45;0.00;0.00;0.00
14880;PMS7003;7533;51.278;12.588;2023-02-03T02:15:50;0.50;0.00;0.00
14880;PMS7003;7533;51.278;12.588;2023-02-03T02:26:49;0.00;0.00;0.00
14880;PMS7003;7533;51.278;12.588;2023-02-03T02:32:06;0.00;0.00;0.00
14880;PMS7003;7533;51.278;12.588;2023-02-03T02:37:21;0.00;0.00;0.00
14880;PMS7003;7533;51.278;12.588;2023-02-03T02:42:35;0.00;0.00;0.00
14880;PMS7003;7533;51.278;12.588;2023-02-03T02:47:45;1.75;0.00;0.00
14880;PMS7003;7533;51.278;12.588;2023-02-03T02:52:49;0.00;0.00;0.00
14880;PMS7003;7533;51.278;12.588;2023-02-03T02:57:54;0.00;0.00;0.00
14880;PMS7003;7533;51.278;12.588;2023-02-03T03:03:13;0.00;0.00;0.00
14880;PMS7003;7533;51.278;12.588;2023-02-03T03:08:18;0.50;0.50;0.00
14880;PMS7003;7533;51.278;12.588;2023-02-03T03:13:27;0.00;0.00;0.00
14880;PMS7003;7533;51.278;12.588;2023-02-03T03:18:35;0.00;0.00;0.00
14880;PMS7003;7533;51.278;12.588;2023-02-03T03:23:44;0.00;0.00;0.00
14880;PMS7003;7533;51.278;12.588;2023-02-03T03:28:50;0.25;0.00;0.00
14880;PMS7003;7533;51.278;12.588;2023-02-03T03:33:57;0.00;0.00;0.00
14880;PMS7003;7533;51.278;12.588;2023-02-03T03:39:01;0.00;0.00;0.00
14880;PMS7003;7533;51.278;12.588;2023-02-03T03:44:10;0.00;0.00;0.00
14880;PMS7003;7533;51.278;12.588;2023-02-03T03:49:17;0.00;0.00;0.00
14880;PMS7003;7533;51.278;12.588;2023-02-03T03:54:24;0.75;0.75;0.00
14880;PMS7003;7533;51.278;12.588;2023-02-03T03:59:30;0.50;0.50;0.00
14880;PMS7003;7533;51.278;12.588;2023-02-03T04:04:40;0.00;0.00;0.00
14880;PMS7003;7533;51.278;12.588;2023-02-03T04:09:44;0.00;0.00;0.00
14880;PMS7003;7533;51.278;12.588;2023-02-03T04:14:47;1.75;0.00;0.00
14880;PMS7003;7533;51.278;12.588;2023-02-03T04:19:52;1.00;1.00;0.00
14880;PMS7003;7533;51.278;12.588;2023-02-03T04:24:54;0.75;0.00;0.00
14880;PMS7003;7533;51.278;12.588;2023-02-03T04:29:59;0.00;0.00;0.00
14880;PMS7003;7533;51.278;12.588;2023-02-03T04:35:03;0.00;0.00;0.00
14880;PMS7003;7533;51.278;12.588;2023-02-03T04:40:07;0.50;0.25;0.00
14880;PMS7003;7533;51.278;12.588;2023-02-03T04:45:11;0.00;0.00;0.00
14880;PMS7003;7533;51.278;12.588;2023-02-03T04:50:15;0.50;0.00;0.00
14880;PMS7003;7533;51.278;12.588;2023-02-03T04:55:18;0.00;0.00;0.00
14880;PMS7003;7533;51.278;12.588;2023-02-03T05:00:21;1.50;1.50;0.50
14880;PMS7003;7533;51.278;12.588;2023-02-03T05:05:26;0.50;0.50;0.00
14880;PMS7003;7533;51.278;12.588;2023-02-03T05:10:29;1.00;0.00;0.00
14880;PMS7003;7533;51.278;12.588;2023-02-03T05:15:32;0.75;0.75;0.00
14880;PMS7003;7533;51.278;12.588;2023-02-03T05:20:36;0.00;0.00;0.00
14880;PMS7003;7533;51.278;12.588;2023-02-03T05:25:39;1.00;1.00;0.00
14880;PMS7003;7533;51.278;12.588;2023-02-03T05:30:41;0.75;0.25;0.00
14880;PMS7003;7533;51.278;12.588;2023-02-03T05:35:46;0.00;0.00;0.00
14880;PMS7003;7533;51.278;12.588;2023-02-03T05:40:49;1.00;1.00;0.00
14880;PMS7003;7533;51.278;12.588;2023-02-03T05:46:10;1.25;0.25;0.00
14880;PMS7003;7533;51.278;12.588;2023-02-03T05:51:14;0.50;0.50;0.00
14880;PMS7003;7533;51.278;12.588;2023-02-03T05:56:17;0.00;0.00;0.00
14880;PMS7003;7533;51.278;12.588;2023-02-03T06:01:20;0.00;0.00;0.00
14880;PMS7003;7533;51.278;12.588;2023-02-03T06:06:24;1.00;1.00;0.00
14880;PMS7003;7533;51.278;12.588;2023-02-03T06:11:27;0.00;0.00;0.00
14880;PMS7003;7533;51.278;12.588;2023-02-03T06:16:30;0.50;0.50;0.00
14880;PMS7003;7533;51.278;12.588;2023-02-03T06:21:34;0.00;0.00;0.00
14880;PMS7003;7533;51.278;12.588;2023-02-03T06:26:38;1.00;0.25;0.00
14880;PMS7003;7533;51.278;12.588;2023-02-03T06:31:41;0.00;0.00;0.00
14880;PMS7003;7533;51.278;12.588;2023-02-03T06:36:45;0.00;0.00;0.00
14880;PMS7003;7533;51.278;12.588;2023-02-03T06:41:48;1.50;1.50;0.00
14880;PMS7003;7533;51.278;12.588;2023-02-03T06:46:52;0.75;0.25;0.00
14880;PMS7003;7533;51.278;12.588;2023-02-03T06:51:56;0.00;0.00;0.00
14880;PMS7003;7533;51.278;12.588;2023-02-03T06:56:59;0.00;0.00;0.00
14880;PMS7003;7533;51.278;12.588;2023-02-03T07:02:02;1.75;0.75;0.00
14880;PMS7003;7533;51.278;12.588;2023-02-03T07:07:07;0.00;0.00;0.00
14880;PMS7003;7533;51.278;12.588;2023-02-03T07:12:10;0.00;0.00;0.00
14880;PMS7003;7533;51.278;12.588;2023-02-03T07:17:13;0.25;0.25;0.00
14880;PMS7003;7533;51.278;12.588;2023-02-03T07:22:17;0.00;0.00;0.00
14880;PMS7003;7533;51.278;12.588;2023-02-03T07:27:20;0.00;0.00;0.00
14880;PMS7003;7533;51.278;12.588;2023-02-03T07:32:23;0.00;0.00;0.00
14880;PMS7003;7533;51.278;12.588;2023-02-03T07:37:28;1.25;1.00;0.00
14880;PMS7003;7533;51.278;12.588;2023-02-03T07:42:31;0.25;0.25;0.00
14880;PMS7003;7533;51.278;12.588;2023-02-03T07:47:35;1.25;1.25;1.00
14880;PMS7003;7533;51.278;12.588;2023-02-03T07:52:39;3.00;2.75;1.00
14880;PMS7003;7533;51.278;12.588;2023-02-03T07:57:42;3.75;3.75;2.00
14880;PMS7003;7533;51.278;12.588;2023-02-03T08:02:45;6.50;6.50;4.00
14880;PMS7003;7533;51.278;12.588;2023-02-03T08:07:50;7.00;7.00;4.00
14880;PMS7003;7533;51.278;12.588;2023-02-03T08:12:53;3.75;3.50;2.50
14880;PMS7003;7533;51.278;12.588;2023-02-03T08:17:57;4.00;4.00;2.00
14880;PMS7003;7533;51.278;12.588;2023-02-03T08:23:01;3.00;2.50;1.00
14880;PMS7003;7533;51.278;12.588;2023-02-03T08:28:04;1.75;1.75;1.00
14880;PMS7003;7533;51.278;12.588;2023-02-03T08:33:07;3.25;1.75;1.00
14880;PMS7003;7533;51.278;12.588;2023-02-03T08:38:11;2.25;2.25;1.00
14880;PMS7003;7533;51.278;12.588;2023-02-03T08:43:15;2.75;2.75;2.00
14880;PMS7003;7533;51.278;12.588;2023-02-03T08:48:17;1.00;1.00;1.00
14880;PMS7003;7533;51.278;12.588;2023-02-03T08:53:22;3.00;3.00;1.00
14880;PMS7003;7533;51.278;12.588;2023-02-03T08:58:24;2.00;2.00;1.00
14880;PMS7003;7533;51.278;12.588;2023-02-03T09:03:27;2.75;2.75;1.00
14880;PMS7003;7533;51.278;12.588;2023-02-03T09:08:31;2.00;2.00;1.00
14880;PMS7003;7533;51.278;12.588;2023-02-03T09:13:34;3.25;2.25;1.00
14880;PMS7003;7533;51.278;12.588;2023-02-03T09:18:39;2.25;1.50;1.00
14880;PMS7003;7533;51.278;12.588;2023-02-03T09:23:43;3.00;3.00;1.75
14880;PMS7003;7533;51.278;12.588;2023-02-03T09:28:46;1.50;1.50;0.50
14880;PMS7003;7533;51.278;12.588;2023-02-03T09:33:49;1.00;1.00;0.25
14880;PMS7003;7533;51.278;12.588;2023-02-03T09:38:53;1.75;1.75;1.00
14880;PMS7003;7533;51.278;12.588;2023-02-03T09:43:59;2.00;2.00;1.00
14880;PMS7003;7533;51.278;12.588;2023-02-03T09:49:11;1.00;1.00;1.00
14880;PMS7003;7533;51.278;12.588;2023-02-03T09:54:20;2.00;2.00;2.00
14880;PMS7003;7533;51.278;12.588;2023-02-03T09:59:32;2.00;1.00;0.00
14880;PMS7003;7533;51.278;12.588;2023-02-03T10:04:37;2.25;1.75;0.75
14880;PMS7003;7533;51.278;12.588;2023-02-03T10:09:49;2.00;1.00;0.50
14880;PMS7003;7533;51.278;12.588;2023-02-03T10:15:08;2.50;1.75;0.50
14880;PMS7003;7533;51.278;12.588;2023-02-03T10:20:25;0.25;0.25;0.00
14880;PMS7003;7533;51.278;12.588;2023-02-03T10:25:38;0.50;0.50;0.00
14880;PMS7003;7533;51.278;12.588;2023-02-03T10:30:45;1.75;1.25;0.25
14880;PMS7003;7533;51.278;12.588;2023-02-03T10:35:52;2.00;2.00;1.00
14880;PMS7003;7533;51.278;12.588;2023-02-03T10:40:59;2.50;2.50;2.00
14880;PMS7003;7533;51.278;12.588;2023-02-03T10:46:02;4.75;4.75;2.25
14880;PMS7003;7533;51.278;12.588;2023-02-03T10:51:07;6.00;6.00;4.00
14880;PMS7003;7533;51.278;12.588;2023-02-03T10:56:18;9.00;9.00;5.00
14880;PMS7003;7533;51.278;12.588;2023-02-03T11:01:24;11.50;11.00;6.00
14880;PMS7003;7533;51.278;12.588;2023-02-03T11:06:29;12.75;11.50;6.50
14880;PMS7003;7533;51.278;12.588;2023-02-03T11:11:35;12.25;11.75;8.00
14880;PMS7003;7533;51.278;12.588;2023-02-03T11:16:42;14.50;13.00;8.00
14880;PMS7003;7533;51.278;12.588;2023-02-03T11:21:47;16.25;11.25;6.25
14880;PMS7003;7533;51.278;12.588;2023-02-03T11:26:55;14.75;10.00;6.00
14880;PMS7003;7533;51.278;12.588;2023-02-03T11:32:01;9.25;8.75;6.25
14880;PMS7003;7533;51.278;12.588;2023-02-03T11:37:24;13.50;13.25;7.50
14880;PMS7003;7533;51.278;12.588;2023-02-03T11:42:30;10.50;8.50;5.00
14880;PMS7003;7533;51.278;12.588;2023-02-03T11:47:32;10.25;9.75;5.50
14880;PMS7003;7533;51.278;12.588;2023-02-03T11:52:42;8.50;7.75;5.25
14880;PMS7003;7533;51.278;12.588;2023-02-03T11:57:55;10.75;9.75;6.75
14880;PMS7003;7533;51.278;12.588;2023-02-03T12:03:17;11.75;9.50;5.00
14880;PMS7003;7533;51.278;12.588;2023-02-03T12:08:50;12.00;9.00;4.00
14880;PMS7003;7533;51.278;12.588;2023-02-03T12:14:09;9.00;9.00;5.00
14880;PMS7003;7533;51.278;12.588;2023-02-03T12:19:26;8.00;7.25;5.00
14880;PMS7003;7533;51.278;12.588;2023-02-03T12:24:41;8.50;7.50;4.00
14880;PMS7003;7533;51.278;12.588;2023-02-03T12:29:55;6.75;6.50;4.00
14880;PMS7003;7533;51.278;12.588;2023-02-03T12:35:04;9.25;8.00;3.75
14880;PMS7003;7533;51.278;12.588;2023-02-03T12:40:17;7.50;6.75;3.25
14880;PMS7003;7533;51.278;12.588;2023-02-03T12:45:30;7.75;6.25;3.25
14880;PMS7003;7533;51.278;12.588;2023-02-03T12:50:38;8.50;6.00;3.00
14880;PMS7003;7533;51.278;12.588;2023-02-03T12:55:46;7.25;6.25;3.25
14880;PMS7003;7533;51.278;12.588;2023-02-03T13:00:58;9.00;7.25;3.75
14880;PMS7003;7533;51.278;12.588;2023-02-03T13:06:07;7.75;6.75;3.25
14880;PMS7003;7533;51.278;12.588;2023-02-03T13:11:18;4.50;4.25;3.00
14880;PMS7003;7533;51.278;12.588;2023-02-03T13:16:29;5.50;4.50;2.50
14880;PMS7003;7533;51.278;12.588;2023-02-03T13:21:37;5.50;5.50;3.00
14880;PMS7003;7533;51.278;12.588;2023-02-03T13:26:46;6.75;5.25;3.00
14880;PMS7003;7533;51.278;12.588;2023-02-03T13:32:06;6.25;6.25;3.25
14880;PMS7003;7533;51.278;12.588;2023-02-03T13:43:10;6.75;6.50;3.00
14880;PMS7003;7533;51.278;12.588;2023-02-03T13:48:33;4.67;4.67;2.00
14880;PMS7003;7533;51.278;12.588;2023-02-03T13:53:38;5.00;5.00;3.00
14880;PMS7003;7533;51.278;12.588;2023-02-03T13:58:45;5.75;5.00;3.00
14880;PMS7003;7533;51.278;12.588;2023-02-03T14:04:02;5.75;4.75;3.00
14880;PMS7003;7533;51.278;12.588;2023-02-03T14:09:17;5.75;4.00;2.75
14880;PMS7003;7533;51.278;12.588;2023-02-03T14:20:27;3.50;3.00;2.00
14880;PMS7003;7533;51.278;12.588;2023-02-03T14:25:40;3.75;3.75;2.25
14880;PMS7003;7533;51.278;12.588;2023-02-03T14:36:34;6.00;5.00;2.00
14880;PMS7003;7533;51.278;12.588;2023-02-03T14:41:43;4.00;4.00;2.25
14880;PMS7003;7533;51.278;12.588;2023-02-03T14:47:09;4.75;4.75;2.00
14880;PMS7003;7533;51.278;12.588;2023-02-03T14:52:46;4.25;4.25;1.75
14880;PMS7003;7533;51.278;12.588;2023-02-03T14:58:00;7.00;4.25;1.25
14880;PMS7003;7533;51.278;12.588;2023-02-03T15:03:18;2.50;2.50;1.25
14880;PMS7003;7533;51.278;12.588;2023-02-03T15:08:34;3.00;3.00;2.00
14880;PMS7003;7533;51.278;12.588;2023-02-03T15:13:43;4.50;3.00;2.00
14880;PMS7003;7533;51.278;12.588;2023-02-03T15:18:51;7.75;6.25;3.00
14880;PMS7003;7533;51.278;12.588;2023-02-03T15:23:56;9.00;6.00;4.00
14880;PMS7003;7533;51.278;12.588;2023-02-03T15:29:01;6.25;5.75;2.75
14880;PMS7003;7533;51.278;12.588;2023-02-03T15:34:09;7.50;5.75;3.00
14880;PMS7003;7533;51.278;12.588;2023-02-03T15:39:22;6.25;6.25;3.00
14880;PMS7003;7533;51.278;12.588;2023-02-03T15:44:39;8.00;4.50;3.00
14880;PMS7003;7533;51.278;12.588;2023-02-03T15:49:51;5.00;5.00;3.00
14880;PMS7003;7533;51.278;12.588;2023-02-03T15:55:09;5.00;4.50;2.25
14880;PMS7003;7533;51.278;12.588;2023-02-03T16:00:27;4.00;4.00;2.00
14880;PMS7003;7533;51.278;12.588;2023-02-03T16:05:33;6.00;6.00;3.00
14880;PMS7003;7533;51.278;12.588;2023-02-03T16:10:39;5.50;4.00;3.00
14880;PMS7003;7533;51.278;12.588;2023-02-03T16:15:42;5.25;4.50;3.00
14880;PMS7003;7533;51.278;12.588;2023-02-03T16:20:47;7.00;7.00;3.50
14880;PMS7003;7533;51.278;12.588;2023-02-03T16:26:06;4.25;4.25;2.25
14880;PMS7003;7533;51.278;12.588;2023-02-03T16:31:21;5.00;4.50;2.00
14880;PMS7003;7533;51.278;12.588;2023-02-03T16:36:42;5.75;5.75;3.25
14880;PMS7003;7533;51.278;12.588;2023-02-03T16:42:07;4.75;4.25;1.75
14880;PMS7003;7533;51.278;12.588;2023-02-03T16:47:37;4.00;4.00;2.00
14880;PMS7003;7533;51.278;12.588;2023-02-03T16:52:57;5.50;5.00;2.00
14880;PMS7003;7533;51.278;12.588;2023-02-03T16:58:01;4.75;4.75;2.00
14880;PMS7003;7533;51.278;12.588;2023-02-03T17:03:04;4.50;3.50;2.00
14880;PMS7003;7533;51.278;12.588;2023-02-03T17:08:07;4.00;4.00;1.75
14880;PMS7003;7533;51.278;12.588;2023-02-03T17:13:12;3.00;3.00;1.00
14880;PMS7003;7533;51.278;12.588;2023-02-03T17:18:15;3.50;3.50;1.75
14880;PMS7003;7533;51.278;12.588;2023-02-03T17:23:18;4.50;4.50;2.00
14880;PMS7003;7533;51.278;12.588;2023-02-03T17:28:23;6.25;4.00;1.75
14880;PMS7003;7533;51.278;12.588;2023-02-03T17:33:26;2.00;2.00;1.00
14880;PMS7003;7533;51.278;12.588;2023-02-03T17:38:30;2.00;2.00;1.00
14880;PMS7003;7533;51.278;12.588;2023-02-03T17:43:35;4.50;3.50;1.75
14880;PMS7003;7533;51.278;12.588;2023-02-03T17:48:55;3.50;2.75;2.00
14880;PMS7003;7533;51.278;12.588;2023-02-03T17:54:16;4.75;3.50;1.50
14880;PMS7003;7533;51.278;12.588;2023-02-03T17:59:20;3.25;2.00;0.75
14880;PMS7003;7533;51.278;12.588;2023-02-03T18:04:23;3.25;3.00;1.00
14880;PMS7003;7533;51.278;12.588;2023-02-03T18:09:26;3.75;2.25;0.50
14880;PMS7003;7533;51.278;12.588;2023-02-03T18:14:31;4.50;2.75;0.75
14880;PMS7003;7533;51.278;12.588;2023-02-03T18:19:33;2.50;2.50;0.25
14880;PMS7003;7533;51.278;12.588;2023-02-03T18:24:36;2.00;2.00;0.00
14880;PMS7003;7533;51.278;12.588;2023-02-03T18:29:41;2.00;2.00;0.00
14880;PMS7003;7533;51.278;12.588;2023-02-03T18:34:45;2.50;2.00;1.00
14880;PMS7003;7533;51.278;12.588;2023-02-03T18:39:48;4.50;3.00;0.25
14880;PMS7003;7533;51.278;12.588;2023-02-03T18:44:52;3.25;2.00;1.00
14880;PMS7003;7533;51.278;12.588;2023-02-03T18:49:55;4.00;3.00;1.00
14880;PMS7003;7533;51.278;12.588;2023-02-03T18:54:58;2.00;2.00;0.00
14880;PMS7003;7533;51.278;12.588;2023-02-03T19:00:02;2.25;1.75;0.50
14880;PMS7003;7533;51.278;12.588;2023-02-03T19:05:06;1.50;1.50;0.00
14880;PMS7003;7533;51.278;12.588;2023-02-03T19:10:11;1.00;1.00;0.00
14880;PMS7003;7533;51.278;12.588;2023-02-03T19:15:16;4.50;2.25;0.50
14880;PMS7003;7533;51.278;12.588;2023-02-03T19:20:19;1.00;1.00;0.00
14880;PMS7003;7533;51.278;12.588;2023-02-03T19:25:22;1.25;1.25;0.00
14880;PMS7003;7533;51.278;12.588;2023-02-03T19:30:26;3.00;2.25;0.25
14880;PMS7003;7533;51.278;12.588;2023-02-03T19:35:30;2.50;1.75;0.50
14880;PMS7003;7533;51.278;12.588;2023-02-03T19:40:33;1.50;1.50;0.25
14880;PMS7003;7533;51.278;12.588;2023-02-03T19:45:38;4.00;2.25;1.00
14880;PMS7003;7533;51.278;12.588;2023-02-03T19:50:41;2.00;1.50;0.00
14880;PMS7003;7533;51.278;12.588;2023-02-03T19:55:46;0.00;0.00;0.00
14880;PMS7003;7533;51.278;12.588;2023-02-03T20:00:50;3.00;1.50;0.00
14880;PMS7003;7533;51.278;12.588;2023-02-03T20:05:53;1.25;1.00;0.00
14880;PMS7003;7533;51.278;12.588;2023-02-03T20:10:56;2.25;1.00;0.00
14880;PMS7003;7533;51.278;12.588;2023-02-03T20:16:00;1.00;1.00;0.00
14880;PMS7003;7533;51.278;12.588;2023-02-03T20:21:03;1.75;1.75;0.00
14880;PMS7003;7533;51.278;12.588;2023-02-03T20:26:06;1.75;0.75;0.00
14880;PMS7003;7533;51.278;12.588;2023-02-03T20:31:11;3.25;1.00;0.25
14880;PMS7003;7533;51.278;12.588;2023-02-03T20:36:14;2.75;2.75;1.00
14880;PMS7003;7533;51.278;12.588;2023-02-03T20:41:17;1.50;1.50;0.50
14880;PMS7003;7533;51.278;12.588;2023-02-03T20:46:22;3.50;2.50;0.00
14880;PMS7003;7533;51.278;12.588;2023-02-03T20:51:25;2.75;1.75;0.00
14880;PMS7003;7533;51.278;12.588;2023-02-03T20:56:29;1.75;1.00;0.00
14880;PMS7003;7533;51.278;12.588;2023-02-03T21:01:34;1.25;1.00;0.00
14880;PMS7003;7533;51.278;12.588;2023-02-03T21:06:46;1.75;1.75;0.00
14880;PMS7003;7533;51.278;12.588;2023-02-03T21:11:50;4.00;1.75;0.00
14880;PMS7003;7533;51.278;12.588;2023-02-03T21:16:54;1.75;1.75;0.25
14880;PMS7003;7533;51.278;12.588;2023-02-03T21:21:57;1.00;1.00;0.00
14880;PMS7003;7533;51.278;12.588;2023-02-03T21:27:06;2.00;1.75;0.00
14880;PMS7003;7533;51.278;12.588;2023-02-03T21:32:28;1.50;1.00;0.00
14880;PMS7003;7533;51.278;12.588;2023-02-03T21:37:38;1.75;1.00;0.25
14880;PMS7003;7533;51.278;12.588;2023-02-03T21:42:42;3.00;2.00;0.00
14880;PMS7003;7533;51.278;12.588;2023-02-03T21:47:48;0.50;0.50;0.00
14880;PMS7003;7533;51.278;12.588;2023-02-03T21:52:52;1.75;1.00;0.00
14880;PMS7003;7533;51.278;12.588;2023-02-03T21:57:55;0.00;0.00;0.00
14880;PMS7003;7533;51.278;12.588;2023-02-03T22:03:00;1.25;0.50;0.00
14880;PMS7003;7533;51.278;12.588;2023-02-03T22:08:12;1.75;1.75;0.00
14880;PMS7003;7533;51.278;12.588;2023-02-03T22:13:18;0.75;0.75;0.00
14880;PMS7003;7533;51.278;12.588;2023-02-03T22:18:23;4.50;1.00;0.00
14880;PMS7003;7533;51.278;12.588;2023-02-03T22:23:26;1.50;1.50;0.00
14880;PMS7003;7533;51.278;12.588;2023-02-03T22:28:28;1.00;1.00;0.00
14880;PMS7003;7533;51.278;12.588;2023-02-03T22:33:33;1.50;0.75;0.00
14880;PMS7003;7533;51.278;12.588;2023-02-03T22:38:37;1.00;1.00;0.00
14880;PMS7003;7533;51.278;12.588;2023-02-03T22:43:40;0.75;0.75;0.00
14880;PMS7003;7533;51.278;12.588;2023-02-03T22:48:44;1.50;1.50;0.00
14880;PMS7003;7533;51.278;12.588;2023-02-03T22:53:47;1.25;0.75;0.00
14880;PMS7003;7533;51.278;12.588;2023-02-03T22:58:50;1.75;1.50;0.00
14880;PMS7003;7533;51.278;12.588;2023-02-03T23:03:55;0.50;0.50;0.00
14880;PMS7003;7533;51.278;12.588;2023-02-03T23:08:57;2.00;1.00;0.00
14880;PMS7003;7533;51.278;12.588;2023-02-03T23:14:00;0.25;0.00;0.00
14880;PMS7003;7533;51.278;12.588;2023-02-03T23:19:05;1.50;1.00;0.00
14880;PMS7003;7533;51.278;12.588;2023-02-03T23:24:07;2.50;1.00;0.00
14880;PMS7003;7533;51.278;12.588;2023-02-03T23:29:10;0.25;0.25;0.00
14880;PMS7003;7533;51.278;12.588;2023-02-03T23:34:14;1.50;0.50;0.00
14880;PMS7003;7533;51.278;12.588;2023-02-03T23:39:34;1.00;1.00;0.00
14880;PMS7003;7533;51.278;12.588;2023-02-03T23:44:37;0.25;0.00;0.00
14880;PMS7003;7533;51.278;12.588;2023-02-03T23:49:41;1.00;1.00;0.00
14880;PMS7003;7533;51.278;12.588;2023-02-03T23:54:44;1.50;1.00;0.00
14880;PMS7003;7533;51.278;12.588;2023-02-03T23:59:47;0.00;0.00;0.00
